Time;durP1;ratioP1;P1;durP2;ratioP2;P2;SDS_P1;SDS_P2;PMS_P1;PMS_P2;Temp;Humidity;BMP_temperature;BMP_pressure;BME280_temperature;BME280_humidity;BME280_pressure;Samples;Min_cycle;Max_cycle;Signal;HPM_P1;HPM_P2
2022/04/05 00:01:09;;;;;;;5.30;3.00;;;9.50;99.90;;;;;;5012385;28;20021;-76
2022/04/05 00:03:36;;;;;;;4.70;2.47;;;9.30;99.90;;;;;;5056934;28;20020;-73
2022/04/05 00:06:03;;;;;;;4.57;3.05;;;9.20;99.90;;;;;;5042706;28;20380;-76
2022/04/05 00:08:29;;;;;;;5.10;2.67;;;9.10;99.90;;;;;;5044482;28;20580;-75
2022/04/05 00:10:56;;;;;;;4.20;2.60;;;9.10;99.90;;;;;;5010775;28;20027;-75
2022/04/05 00:13:22;;;;;;;4.05;2.85;;;9.00;99.90;;;;;;5037113;28;21344;-75
2022/04/05 00:15:49;;;;;;;5.72;2.70;;;9.00;99.90;;;;;;5047922;28;20039;-76
2022/04/05 00:18:16;;;;;;;4.70;2.67;;;9.00;99.90;;;;;;5026748;28;20032;-76
2022/04/05 00:20:42;;;;;;;4.43;2.25;;;9.00;99.90;;;;;;5039703;28;20045;-75
2022/04/05 00:23:09;;;;;;;3.08;2.75;;;8.90;99.90;;;;;;5005084;28;20294;-75
2022/04/05 00:25:35;;;;;;;4.65;2.55;;;8.90;99.90;;;;;;5025344;28;20056;-75
2022/04/05 00:28:02;;;;;;;4.65;2.60;;;8.80;99.90;;;;;;5041344;28;20032;-75
2022/04/05 00:30:28;;;;;;;3.13;1.65;;;8.80;99.90;;;;;;5058718;28;20368;-75
2022/04/05 00:32:55;;;;;;;3.97;1.70;;;8.70;99.90;;;;;;5020433;28;20040;-75
2022/04/05 00:35:21;;;;;;;4.35;1.30;;;8.70;99.90;;;;;;5007341;28;20059;-73
2022/04/05 00:37:48;;;;;;;2.70;1.20;;;8.70;99.90;;;;;;5024290;28;20460;-75
2022/04/05 00:40:14;;;;;;;3.53;1.20;;;8.60;99.90;;;;;;5039515;28;20025;-73
2022/04/05 00:42:41;;;;;;;3.50;1.15;;;8.60;99.90;;;;;;5038077;28;20028;-75
2022/04/05 00:45:15;;;;;;;2.08;0.88;;;8.60;99.90;;;;;;5039960;28;20021;-75
2022/04/05 00:47:45;;;;;;;1.92;0.80;;;8.50;99.90;;;;;;5041880;28;20056;-75
2022/04/05 00:50:14;;;;;;;2.90;1.00;;;8.50;99.90;;;;;;5028724;28;21368;-73
2022/04/05 00:52:40;;;;;;;2.47;0.73;;;8.50;99.90;;;;;;5000067;28;20048;-73
2022/04/05 00:55:07;;;;;;;3.28;0.90;;;8.50;99.90;;;;;;5021544;28;20060;-74
2022/04/05 00:57:34;;;;;;;2.08;0.90;;;8.50;99.90;;;;;;5014185;28;20476;-74
2022/04/05 01:00:03;;;;;;;3.28;0.82;;;8.50;99.90;;;;;;5024898;28;20029;-74
2022/04/05 01:02:38;;;;;;;3.70;0.70;;;8.40;99.90;;;;;;5035482;28;20017;-74
2022/04/05 01:05:07;;;;;;;2.40;0.93;;;8.40;99.90;;;;;;5023932;28;20024;-74
2022/04/05 01:07:34;;;;;;;3.90;0.80;;;8.40;99.90;;;;;;5025100;28;20460;-74
2022/04/05 01:10:00;;;;;;;2.15;0.98;;;8.40;99.90;;;;;;5023722;28;20037;-74
2022/04/05 01:12:27;;;;;;;3.00;0.68;;;8.40;99.90;;;;;;5037875;28;20084;-75
2022/04/05 01:14:54;;;;;;;2.08;0.90;;;8.40;99.90;;;;;;5040848;28;20036;-74
2022/04/05 01:17:20;;;;;;;1.63;0.70;;;8.40;99.90;;;;;;5009057;28;20032;-74
2022/04/05 01:19:51;;;;;;;1.92;0.90;;;8.30;99.90;;;;;;4990062;28;20079;-74
2022/04/05 01:22:24;;;;;;;2.55;0.90;;;8.30;99.90;;;;;;5038392;28;20013;-74
2022/04/05 01:24:53;;;;;;;2.22;0.82;;;8.30;99.90;;;;;;5006450;28;20033;-75
2022/04/05 01:27:27;;;;;;;1.55;0.82;;;8.30;99.90;;;;;;4980089;28;20029;-75
2022/04/05 01:29:57;;;;;;;3.25;0.95;;;8.30;99.90;;;;;;5003367;28;20029;-74
2022/04/05 01:32:27;;;;;;;2.85;0.77;;;8.30;99.90;;;;;;5020674;28;20026;-74
2022/04/05 01:34:55;;;;;;;3.83;0.80;;;8.30;99.90;;;;;;5003255;28;20063;-74
2022/04/05 01:37:22;;;;;;;3.95;0.88;;;8.30;99.90;;;;;;4972597;28;20373;-74
2022/04/05 01:39:49;;;;;;;2.40;0.98;;;8.30;99.90;;;;;;5010339;28;20029;-74
2022/04/05 01:42:17;;;;;;;2.78;0.90;;;8.30;99.90;;;;;;5030892;28;20030;-74
2022/04/05 01:44:53;;;;;;;2.03;0.70;;;8.30;99.90;;;;;;5018136;28;20036;-74
2022/04/05 01:47:21;;;;;;;6.00;1.20;;;8.30;99.90;;;;;;5021500;28;20021;-74
2022/04/05 01:49:53;;;;;;;3.55;1.00;;;8.30;99.90;;;;;;5034300;28;20022;-74
2022/04/05 01:52:21;;;;;;;4.50;0.93;;;8.30;99.90;;;;;;5018707;28;20045;-74
2022/04/05 01:54:54;;;;;;;;;;;8.30;99.90;;;;;;5037209;28;20036;-74
2022/04/05 01:57:20;;;;;;;4.30;1.58;;;8.30;99.90;;;;;;5012353;28;19917;-77
2022/04/05 01:59:49;;;;;;;7.50;1.25;;;8.20;99.90;;;;;;5012940;28;20341;-77
2022/04/05 02:02:16;;;;;;;5.07;1.20;;;8.20;99.90;;;;;;5033007;28;20021;-77
2022/04/05 02:04:42;;;;;;;2.97;1.10;;;8.20;99.90;;;;;;5035386;28;20044;-77
2022/04/05 02:07:15;;;;;;;3.47;1.00;;;8.20;99.90;;;;;;5020521;28;20036;-77
2022/04/05 02:09:43;;;;;;;4.75;1.20;;;8.20;99.90;;;;;;5002657;28;20033;-77
2022/04/05 02:12:14;;;;;;;3.95;1.00;;;8.20;99.90;;;;;;4993082;28;20033;-77
2022/04/05 02:14:52;;;;;;;5.57;1.33;;;8.20;99.90;;;;;;5017425;28;20129;-77
2022/04/05 02:17:25;;;;;;;2.28;0.80;;;8.20;99.90;;;;;;5004068;28;20017;-77
2022/04/05 02:19:56;;;;;;;3.10;1.10;;;8.20;99.90;;;;;;5009871;28;20052;-77
2022/04/05 02:22:24;;;;;;;3.47;1.13;;;8.20;99.90;;;;;;5002693;28;20550;-77
2022/04/05 02:24:53;;;;;;;3.75;1.50;;;8.20;99.90;;;;;;5005173;28;20017;-77
2022/04/05 02:27:30;;;;;;;4.93;1.27;;;8.20;99.90;;;;;;5038855;28;20032;-77
2022/04/05 02:30:02;;;;;;;5.55;1.70;;;8.10;99.90;;;;;;5022072;28;20029;-77
2022/04/05 02:32:56;;;;;;;5.65;1.58;;;8.20;99.90;;;;;;5052868;28;20045;-77
2022/04/05 02:35:26;;;;;;;3.58;1.38;;;8.20;99.90;;;;;;5038410;28;20488;-77
2022/04/05 02:37:53;;;;;;;3.63;1.40;;;8.10;99.90;;;;;;5058506;28;20020;-76
2022/04/05 02:40:24;;;;;;;4.53;1.40;;;8.20;99.90;;;;;;5026369;28;20025;-77
2022/04/05 02:42:56;;;;;;;5.15;1.33;;;8.20;99.90;;;;;;5051208;28;20514;-77
2022/04/05 02:45:24;;;;;;;6.22;1.50;;;8.20;99.90;;;;;;5023183;28;20037;-77
2022/04/05 02:47:53;;;;;;;4.35;1.48;;;8.10;99.90;;;;;;5021910;28;20044;-77
2022/04/05 02:50:24;;;;;;;3.85;2.30;;;8.20;99.90;;;;;;5040473;28;20736;-77
2022/04/05 02:52:50;;;;;;;3.63;1.90;;;8.10;99.90;;;;;;5034104;28;20044;-77
2022/04/05 02:55:19;;;;;;;2.92;1.50;;;8.10;99.90;;;;;;5055836;28;21028;-77
2022/04/05 02:57:50;;;;;;;2.72;1.25;;;8.10;99.90;;;;;;5035258;28;20074;-80
2022/04/05 03:00:22;;;;;;;3.50;1.65;;;8.10;99.90;;;;;;5009243;28;20028;-81
2022/04/05 03:02:51;;;;;;;5.05;1.35;;;8.10;99.90;;;;;;5007167;28;20123;-80
2022/04/05 03:05:22;;;;;;;3.42;1.60;;;8.10;99.90;;;;;;5029098;28;20033;-81
2022/04/05 03:07:50;;;;;;;3.15;1.65;;;8.10;99.90;;;;;;5046630;28;20036;-80
2022/04/05 03:10:17;;;;;;;5.88;2.17;;;8.10;99.90;;;;;;5030204;28;20104;-80
2022/04/05 03:12:50;;;;;;;3.85;1.80;;;8.10;99.90;;;;;;5017836;28;20392;-80
2022/04/05 03:15:19;;;;;;;2.90;1.25;;;8.10;99.90;;;;;;5010027;28;20036;-80
2022/04/05 03:17:47;;;;;;;3.00;1.77;;;8.10;99.90;;;;;;5031257;28;20048;-80
2022/04/05 03:20:20;;;;;;;2.78;1.17;;;8.10;99.90;;;;;;5031644;28;20109;-81
2022/04/05 03:22:50;;;;;;;3.17;1.60;;;8.10;99.90;;;;;;5051341;28;20029;-81
2022/04/05 03:25:16;;;;;;;4.05;2.05;;;8.10;99.90;;;;;;5029209;28;20048;-80
2022/04/05 03:27:44;;;;;;;4.10;1.85;;;8.10;99.90;;;;;;5028788;28;20032;-80
2022/04/05 03:30:15;;;;;;;3.38;1.58;;;8.10;99.90;;;;;;5046167;28;20028;-80
2022/04/05 03:32:43;;;;;;;2.70;1.90;;;8.10;99.90;;;;;;5025793;28;20032;-80
2022/04/05 03:35:09;;;;;;;3.35;1.67;;;8.10;99.90;;;;;;5023162;28;20033;-80
2022/04/05 03:37:37;;;;;;;4.43;2.00;;;8.10;99.90;;;;;;5030121;28;20037;-80
2022/04/05 03:40:05;;;;;;;3.05;1.63;;;8.10;99.90;;;;;;5013270;28;20380;-80
2022/04/05 03:42:33;;;;;;;3.38;1.80;;;8.10;99.90;;;;;;5010924;28;20396;-81
2022/04/05 03:45:00;;;;;;;3.58;1.63;;;8.10;99.90;;;;;;4996611;28;20036;-80
2022/04/05 03:47:27;;;;;;;7.40;1.83;;;8.10;99.90;;;;;;5012940;28;20353;-80
2022/04/05 03:49:54;;;;;;;3.20;1.40;;;8.10;99.90;;;;;;5046850;28;20045;-80
2022/04/05 03:52:21;;;;;;;3.47;1.40;;;8.10;99.90;;;;;;5041759;28;20020;-79
2022/04/05 03:54:48;;;;;;;5.20;1.67;;;8.00;99.90;;;;;;5027444;28;20041;-80
2022/04/05 03:57:19;;;;;;;4.78;1.60;;;8.10;99.90;;;;;;5013446;28;20039;-80
2022/04/05 03:59:46;;;;;;;3.65;1.50;;;8.10;99.90;;;;;;4983441;28;20367;-80
2022/04/05 04:02:12;;;;;;;7.45;1.70;;;8.10;99.90;;;;;;5003042;28;20025;-81
2022/04/05 04:04:39;;;;;;;2.10;1.15;;;8.10;99.90;;;;;;5013706;28;20036;-80
2022/04/05 04:07:07;;;;;;;5.18;1.88;;;8.20;99.90;;;;;;5013166;28;20094;-79
2022/04/05 04:09:34;;;;;;;7.13;1.55;;;8.10;99.90;;;;;;5013139;28;20028;-80
2022/04/05 04:12:01;;;;;;;6.30;1.80;;;8.10;99.90;;;;;;5000774;28;20347;-80
2022/04/05 04:14:32;;;;;;;4.32;1.35;;;8.10;99.90;;;;;;5009269;28;20016;-80
2022/04/05 04:17:02;;;;;;;4.50;1.83;;;8.20;99.90;;;;;;4993379;28;20029;-80
2022/04/05 04:19:29;;;;;;;5.50;1.45;;;8.20;99.90;;;;;;5026803;28;20033;-81
2022/04/05 04:21:55;;;;;;;5.70;1.60;;;8.20;99.90;;;;;;5022034;28;21055;-79
2022/04/05 04:24:22;;;;;;;4.57;1.40;;;8.20;99.90;;;;;;5009545;28;20028;-78
2022/04/05 04:26:49;;;;;;;3.97;1.83;;;8.20;99.90;;;;;;4994983;28;20488;-79
2022/04/05 04:29:15;;;;;;;5.20;1.98;;;8.20;99.90;;;;;;5042260;28;20037;-76
2022/04/05 04:31:42;;;;;;;4.63;2.42;;;8.20;99.90;;;;;;5021078;28;20521;-76
2022/04/05 04:34:12;;;;;;;5.63;1.95;;;8.20;99.90;;;;;;5007829;28;20057;-76
2022/04/05 04:36:40;;;;;;;4.55;2.10;;;8.20;99.90;;;;;;5039058;28;20033;-77
2022/04/05 04:39:11;;;;;;;7.55;2.42;;;8.20;99.90;;;;;;5003268;28;20488;-77
2022/04/05 04:41:37;;;;;;;15.05;5.78;;;8.20;99.90;;;;;;5025905;28;20045;-77
2022/04/05 04:44:04;;;;;;;7.70;3.88;;;8.20;99.90;;;;;;5058832;28;20040;-78
2022/04/05 04:46:30;;;;;;;9.02;4.82;;;8.20;99.90;;;;;;5012491;28;20361;-78
2022/04/05 04:48:57;;;;;;;8.50;3.88;;;8.20;99.90;;;;;;5012169;28;20041;-77
2022/04/05 04:51:24;;;;;;;8.30;4.80;;;8.20;99.90;;;;;;5013544;28;21216;-78
2022/04/05 04:53:50;;;;;;;10.73;5.32;;;8.20;99.90;;;;;;5023863;28;20036;-78
2022/04/05 04:56:16;;;;;;;11.77;6.22;;;8.30;99.90;;;;;;5007843;28;20059;-76
2022/04/05 04:58:45;;;;;;;18.77;10.00;;;8.20;99.90;;;;;;5011885;28;20037;-76
2022/04/05 05:01:12;;;;;;;17.70;8.82;;;8.30;99.90;;;;;;4994686;28;20028;-76
2022/04/05 05:03:38;;;;;;;12.48;6.70;;;8.30;99.90;;;;;;5005623;28;20441;-76
2022/04/05 05:06:05;;;;;;;11.20;7.07;;;8.30;99.90;;;;;;5025169;28;20218;-76
2022/04/05 05:08:33;;;;;;;11.25;5.78;;;8.30;99.90;;;;;;5027328;28;20084;-76
2022/04/05 05:10:59;;;;;;;11.27;5.32;;;8.30;99.90;;;;;;5043777;28;20036;-76
2022/04/05 05:13:26;;;;;;;10.95;5.95;;;8.30;99.90;;;;;;5022291;28;20470;-76
2022/04/05 05:15:52;;;;;;;11.50;5.40;;;8.40;99.90;;;;;;5010339;28;20028;-76
2022/04/05 05:18:19;;;;;;;10.90;5.72;;;8.40;99.90;;;;;;4997047;28;20024;-77
2022/04/05 05:20:45;;;;;;;13.30;5.57;;;8.40;99.90;;;;;;4997936;28;20053;-77
2022/04/05 05:23:13;;;;;;;14.27;5.50;;;8.40;99.90;;;;;;5004098;28;20044;-77
2022/04/05 05:25:40;;;;;;;12.93;6.50;;;8.40;99.90;;;;;;5022050;28;20045;-77
2022/04/05 05:28:06;;;;;;;10.73;6.03;;;8.40;99.90;;;;;;5042598;28;20029;-77
2022/04/05 05:30:33;;;;;;;12.82;5.80;;;8.50;99.90;;;;;;4994018;28;20036;-77
2022/04/05 05:33:03;;;;;;;14.65;6.68;;;8.50;99.90;;;;;;5005114;28;20029;-77
2022/04/05 05:35:32;;;;;;;12.23;6.15;;;8.50;99.90;;;;;;4961261;28;20033;-77
2022/04/05 05:37:58;;;;;;;14.88;7.07;;;8.50;99.90;;;;;;5023885;28;20037;-77
2022/04/05 05:40:30;;;;;;;14.00;8.70;;;8.50;99.90;;;;;;4994458;28;20415;-74
2022/04/05 05:42:59;;;;;;;14.32;7.95;;;8.50;99.90;;;;;;5018121;28;20020;-77
2022/04/05 05:45:27;;;;;;;15.82;7.72;;;8.50;99.90;;;;;;5023399;28;20024;-77
2022/04/05 05:47:53;;;;;;;15.98;8.98;;;8.50;99.90;;;;;;4974820;28;20044;-78
2022/04/05 05:50:22;;;;;;;14.77;8.18;;;8.50;99.90;;;;;;5007808;28;20025;-78
2022/04/05 05:52:52;;;;;;;12.90;7.15;;;8.50;99.90;;;;;;4983306;28;20025;-76
2022/04/05 05:55:21;;;;;;;16.58;9.10;;;8.50;99.90;;;;;;5004111;28;20041;-77
2022/04/05 05:57:48;;;;;;;14.85;8.98;;;8.50;99.90;;;;;;4987880;28;20024;-78
2022/04/05 06:00:20;;;;;;;17.85;8.73;;;8.60;99.90;;;;;;5004622;28;20041;-77
2022/04/05 06:02:52;;;;;;;13.93;7.20;;;8.60;99.90;;;;;;5016858;28;20035;-77
2022/04/05 06:05:19;;;;;;;16.90;8.30;;;8.60;99.90;;;;;;4988030;28;20037;-77
2022/04/05 06:07:46;;;;;;;16.67;9.27;;;8.60;99.90;;;;;;4972011;28;20036;-77
2022/04/05 06:10:13;;;;;;;18.17;8.07;;;8.60;99.90;;;;;;5003620;28;20025;-77
2022/04/05 06:12:47;;;;;;;15.07;7.78;;;8.60;99.90;;;;;;4999548;28;20028;-77
2022/04/05 06:15:14;;;;;;;20.10;9.90;;;8.60;99.90;;;;;;5001952;28;20029;-77
2022/04/05 06:17:46;;;;;;;20.35;10.68;;;8.60;99.90;;;;;;5003874;28;20037;-77
2022/04/05 06:20:16;;;;;;;27.05;11.73;;;8.60;99.90;;;;;;5013634;28;20036;-77
2022/04/05 06:22:54;;;;;;;21.25;10.70;;;8.60;99.90;;;;;;5028638;28;20028;-77
2022/04/05 06:25:37;;;;;;;26.48;12.50;;;8.60;99.90;;;;;;5046118;28;20039;-77
2022/04/05 06:28:06;;;;;;;30.85;13.75;;;8.70;99.90;;;;;;5060639;28;20032;-77
2022/04/05 06:30:34;;;;;;;22.45;11.52;;;8.70;99.90;;;;;;5045656;28;20039;-76
2022/04/05 06:33:14;;;;;;;25.20;12.70;;;8.70;99.90;;;;;;5027361;28;20032;-77
2022/04/05 06:35:44;;;;;;;31.38;14.60;;;8.80;99.90;;;;;;5044990;28;20379;-76
2022/04/05 06:38:11;;;;;;;37.20;16.77;;;8.80;99.90;;;;;;5061314;28;20035;-76
2022/04/05 06:40:38;;;;;;;32.83;15.77;;;8.90;99.90;;;;;;5061686;28;20019;-77
2022/04/05 06:43:05;;;;;;;31.58;15.75;;;8.90;99.90;;;;;;5057902;28;20043;-76
2022/04/05 06:45:31;;;;;;;32.47;15.73;;;9.00;99.90;;;;;;5046389;28;20032;-77
2022/04/05 06:47:57;;;;;;;24.73;14.20;;;9.10;99.90;;;;;;5028245;28;20039;-76
2022/04/05 06:50:24;;;;;;;28.33;15.20;;;9.10;99.90;;;;;;5043672;28;20028;-76
2022/04/05 06:52:53;;;;;;;27.23;14.30;;;9.20;99.90;;;;;;5055224;28;20024;-78
2022/04/05 06:55:19;;;;;;;23.30;13.77;;;9.30;99.90;;;;;;5041864;28;20032;-78
2022/04/05 06:57:46;;;;;;;26.02;13.88;;;9.30;99.90;;;;;;5012962;28;20054;-77
2022/04/05 07:00:23;;;;;;;23.23;14.23;;;9.40;99.90;;;;;;5025959;28;20500;-77
2022/04/05 07:02:51;;;;;;;23.27;13.52;;;9.40;99.90;;;;;;5036674;28;20039;-77
2022/04/05 07:05:18;;;;;;;21.88;13.57;;;9.50;99.90;;;;;;5009397;28;20027;-76
2022/04/05 07:07:45;;;;;;;20.77;13.40;;;9.50;99.90;;;;;;5041708;28;20033;-77
2022/04/05 07:10:15;;;;;;;24.52;13.88;;;9.50;99.90;;;;;;5027225;28;20027;-77
2022/04/05 07:12:42;;;;;;;29.63;14.70;;;9.60;99.90;;;;;;5034896;28;20364;-77
2022/04/05 07:15:10;;;;;;;27.90;15.88;;;9.60;99.90;;;;;;5009252;28;20031;-77
2022/04/05 07:17:37;;;;;;;29.70;16.95;;;9.70;99.90;;;;;;5027855;28;20368;-77
2022/04/05 07:20:09;;;;;;;26.17;15.70;;;9.70;99.90;;;;;;5026217;28;20040;-77
2022/04/05 07:22:43;;;;;;;25.97;15.27;;;9.70;99.90;;;;;;5039265;28;20036;-77
2022/04/05 07:25:09;;;;;;;30.02;15.48;;;9.80;99.90;;;;;;5058085;28;20278;-77
2022/04/05 07:27:36;;;;;;;26.50;15.65;;;9.80;99.90;;;;;;5040701;28;20036;-77
2022/04/05 07:30:03;;;;;;;26.77;15.15;;;9.80;99.90;;;;;;5047108;28;20039;-77
2022/04/05 07:32:37;;;;;;;29.48;16.23;;;9.80;99.90;;;;;;5023727;28;20042;-77
2022/04/05 07:35:05;;;;;;;23.48;15.13;;;9.80;99.90;;;;;;5027831;28;21346;-77
2022/04/05 07:37:32;;;;;;;20.05;13.65;;;9.80;99.90;;;;;;5010144;28;20052;-76
2022/04/05 07:39:59;;;;;;;24.40;15.52;;;9.90;99.90;;;;;;5025583;28;20472;-76
2022/04/05 07:42:27;;;;;;;23.77;14.40;;;9.90;99.90;;;;;;5040300;28;20633;-76
2022/04/05 07:44:53;;;;;;;21.58;14.50;;;10.00;99.90;;;;;;5058039;28;20028;-76
2022/04/05 07:47:20;;;;;;;18.63;12.70;;;10.00;99.90;;;;;;5024862;28;20028;-76
2022/04/05 07:49:47;;;;;;;21.45;13.32;;;10.10;99.90;;;;;;5062403;28;20032;-76
2022/04/05 07:52:14;;;;;;;22.42;14.10;;;10.10;99.90;;;;;;5042957;28;20039;-75
2022/04/05 07:54:42;;;;;;;24.05;13.25;;;10.20;99.90;;;;;;5014811;28;20032;-77
2022/04/05 07:57:10;;;;;;;27.23;12.70;;;10.20;99.90;;;;;;5046376;28;20475;-75
2022/04/05 07:59:37;;;;;;;21.20;12.35;;;10.20;99.90;;;;;;5046993;28;20020;-76
2022/04/05 08:02:03;;;;;;;19.17;12.43;;;10.20;99.90;;;;;;5023702;28;20044;-76
2022/04/05 08:04:30;;;;;;;17.77;11.75;;;10.30;99.90;;;;;;5046156;28;20046;-76
2022/04/05 08:06:56;;;;;;;18.77;11.82;;;10.30;99.90;;;;;;5029585;28;20047;-76
2022/04/05 08:09:23;;;;;;;17.75;10.75;;;10.30;99.90;;;;;;5016096;28;20514;-76
2022/04/05 08:11:49;;;;;;;19.60;10.30;;;10.30;99.90;;;;;;5058200;28;20040;-76
2022/04/05 08:14:16;;;;;;;19.40;10.40;;;10.30;99.90;;;;;;5014909;28;20059;-76
2022/04/05 08:16:42;;;;;;;18.67;10.10;;;10.20;99.90;;;;;;5025129;28;20043;-76
2022/04/05 08:19:09;;;;;;;17.58;11.20;;;10.30;99.90;;;;;;5044975;28;20490;-77
2022/04/05 08:21:39;;;;;;;11.23;8.70;;;10.30;99.90;;;;;;5042718;28;20048;-77
2022/04/05 08:24:06;;;;;;;14.57;9.15;;;10.20;99.90;;;;;;5061212;28;20426;-77
2022/04/05 08:26:32;;;;;;;17.73;9.82;;;10.30;99.90;;;;;;5062636;28;20048;-76
2022/04/05 08:29:04;;;;;;;13.15;8.43;;;10.30;99.90;;;;;;5046332;28;20067;-77
2022/04/05 08:31:30;;;;;;;18.10;8.57;;;10.20;99.90;;;;;;5060249;28;20040;-77
2022/04/05 08:33:57;;;;;;;14.90;9.13;;;10.30;99.90;;;;;;5059821;28;20032;-77
2022/04/05 08:36:24;;;;;;;12.88;8.57;;;10.30;99.90;;;;;;5046739;28;20045;-76
2022/04/05 08:38:50;;;;;;;14.00;8.20;;;10.40;99.90;;;;;;5080220;28;20025;-77
2022/04/05 08:41:20;;;;;;;12.07;8.10;;;10.40;99.90;;;;;;5081041;28;20025;-77
2022/04/05 08:43:49;;;;;;;13.32;8.77;;;10.50;99.90;;;;;;5041386;28;20020;-77
2022/04/05 08:46:19;;;;;;;16.55;8.48;;;10.50;99.90;;;;;;5044835;28;20391;-77
2022/04/05 08:48:47;;;;;;;10.40;8.25;;;10.60;99.90;;;;;;5080972;28;20035;-77
2022/04/05 08:51:15;;;;;;;17.13;8.73;;;10.60;99.90;;;;;;5016403;28;20403;-77
2022/04/05 08:53:43;;;;;;;14.10;8.52;;;10.70;99.90;;;;;;5075248;28;20020;-77
2022/04/05 08:56:10;;;;;;;10.65;7.88;;;10.60;99.90;;;;;;5062552;28;20047;-77
2022/04/05 08:58:38;;;;;;;13.35;8.00;;;10.80;99.90;;;;;;5045340;28;20028;-77
2022/04/05 09:01:04;;;;;;;11.13;7.95;;;10.80;99.90;;;;;;5016497;28;20043;-77
2022/04/05 09:03:33;;;;;;;16.35;9.57;;;10.80;99.90;;;;;;5075466;28;20383;-77
2022/04/05 09:06:32;;;;;;;14.25;7.75;;;10.80;99.90;;;;;;5025919;28;20047;-77
2022/04/05 09:09:09;;;;;;;11.32;8.10;;;10.80;99.90;;;;;;5079382;28;20028;-77
2022/04/05 09:11:44;;;;;;;17.40;9.77;;;10.90;99.90;;;;;;5060588;28;20024;-76
2022/04/05 09:14:11;;;;;;;10.77;8.98;;;11.00;99.90;;;;;;5031850;28;20074;-77
2022/04/05 09:16:38;;;;;;;13.50;8.35;;;11.10;99.90;;;;;;5044045;28;20039;-77
2022/04/05 09:19:13;;;;;;;11.00;8.90;;;11.20;99.90;;;;;;5062536;28;20027;-76
2022/04/05 09:22:09;;;;;;;15.38;8.65;;;11.40;99.90;;;;;;5041908;28;20044;-77
2022/04/05 09:24:40;;;;;;;9.23;8.32;;;11.50;99.90;;;;;;5036445;28;20387;-77
2022/04/05 09:27:10;;;;;;;12.68;9.13;;;11.60;99.90;;;;;;5045038;28;20459;-77
2022/04/05 09:29:49;;;;;;;11.93;8.93;;;11.70;99.90;;;;;;5011203;28;20510;-77
2022/04/05 09:32:48;;;;;;;13.93;8.25;;;11.80;99.90;;;;;;5039197;28;20024;-77
2022/04/05 09:35:18;;;;;;;12.23;8.40;;;11.80;99.90;;;;;;5008961;28;20394;-77
2022/04/05 09:37:45;;;;;;;10.10;6.85;;;11.80;99.90;;;;;;5060163;28;20032;-77
2022/04/05 09:40:34;;;;;;;14.80;7.35;;;11.80;99.90;;;;;;5061340;28;20031;-77
2022/04/05 09:43:00;;;;;;;9.90;7.50;;;11.80;99.90;;;;;;5022265;28;20055;-77
2022/04/05 09:45:47;;;;;;;13.23;8.23;;;11.80;99.90;;;;;;5061194;28;20017;-77
2022/04/05 09:48:19;;;;;;;11.57;8.35;;;11.70;99.90;;;;;;5046326;28;20684;-77
2022/04/05 09:51:06;;;;;;;9.77;8.02;;;11.70;99.90;;;;;;5044267;28;20032;-78
2022/04/05 09:53:38;;;;;;;9.70;6.95;;;11.80;99.90;;;;;;5037958;28;20053;-78
2022/04/05 09:56:22;;;;;;;10.95;7.03;;;11.70;99.90;;;;;;5060572;28;20051;-78
2022/04/05 09:59:03;;;;;;;9.60;6.38;;;11.60;99.90;;;;;;5047813;28;20030;-78
2022/04/05 10:01:33;;;;;;;13.10;7.13;;;11.60;99.90;;;;;;5028003;28;20040;-78
2022/04/05 10:04:02;;;;;;;9.70;5.35;;;11.50;99.90;;;;;;5057109;28;20024;-78
2022/04/05 10:06:33;;;;;;;5.78;4.55;;;11.30;99.90;;;;;;5044461;28;20047;-78
2022/04/05 10:09:03;;;;;;;7.57;5.15;;;11.20;99.90;;;;;;5029444;28;20020;-78
2022/04/05 10:11:32;;;;;;;7.30;4.90;;;11.10;99.90;;;;;;5059400;28;20036;-77
2022/04/05 10:13:59;;;;;;;5.65;4.30;;;11.10;99.90;;;;;;5041515;28;20047;-77
2022/04/05 10:16:30;;;;;;;10.65;5.63;;;11.10;99.90;;;;;;5040393;28;20043;-78
2022/04/05 10:19:01;;;;;;;6.97;5.38;;;11.20;99.90;;;;;;5061543;28;20680;-78
2022/04/05 10:21:29;;;;;;;12.00;6.47;;;11.30;99.90;;;;;;5078765;28;20487;-77
2022/04/05 10:23:57;;;;;;;6.85;5.40;;;11.40;99.90;;;;;;5057158;28;20039;-78
2022/04/05 10:26:27;;;;;;;6.10;4.97;;;11.40;99.90;;;;;;5027791;28;20024;-78
2022/04/05 10:28:56;;;;;;;9.07;5.15;;;11.40;99.90;;;;;;5028500;28;20028;-76
2022/04/05 10:31:42;;;;;;;7.18;4.18;;;11.40;99.90;;;;;;5061683;28;20016;-80
2022/04/05 10:34:17;;;;;;;6.40;5.05;;;11.40;99.90;;;;;;5043348;28;20035;-77
2022/04/05 10:37:06;;;;;;;6.50;4.90;;;11.50;99.90;;;;;;5053805;28;20527;-79
2022/04/05 10:39:33;;;;;;;5.15;3.80;;;11.50;99.90;;;;;;5041040;28;20040;-76
2022/04/05 10:42:08;;;;;;;4.63;3.97;;;11.60;99.90;;;;;;5022067;28;20037;-75
2022/04/05 10:44:40;;;;;;;6.50;4.18;;;11.70;99.90;;;;;;5024166;28;20051;-77
2022/04/05 10:47:07;;;;;;;8.20;4.73;;;11.80;99.90;;;;;;5025675;28;20027;-77
2022/04/05 10:49:43;;;;;;;5.57;4.40;;;11.80;99.90;;;;;;5054317;28;20035;-76
2022/04/05 10:52:11;;;;;;;7.68;5.75;;;11.90;99.90;;;;;;5059097;28;20043;-78
2022/04/05 10:55:00;;;;;;;7.57;6.38;;;12.00;99.90;;;;;;5026870;28;20483;-76
2022/04/05 10:57:35;;;;;;;9.27;6.53;;;12.20;99.90;;;;;;5020468;28;20048;-77
2022/04/05 11:00:10;;;;;;;8.93;7.03;;;12.30;99.90;;;;;;5045001;28;20020;-77
2022/04/05 11:03:02;;;;;;;13.40;8.25;;;12.30;99.90;;;;;;5058436;28;20087;-77
2022/04/05 11:05:37;;;;;;;8.77;7.30;;;12.30;99.90;;;;;;5044462;28;20020;-76
2022/04/05 11:08:07;;;;;;;9.60;7.25;;;12.30;99.90;;;;;;5042345;28;20031;-76
2022/04/05 11:10:36;;;;;;;14.13;8.18;;;12.20;99.90;;;;;;5060953;28;20023;-76
2022/04/05 11:13:13;;;;;;;14.55;7.78;;;12.20;99.90;;;;;;5041940;28;20024;-76
2022/04/05 11:15:40;;;;;;;16.33;8.50;;;12.00;99.90;;;;;;5042925;28;20023;-76
2022/04/05 11:18:11;;;;;;;12.50;8.05;;;12.00;99.90;;;;;;5043260;28;20028;-76
2022/04/05 11:20:44;;;;;;;11.10;7.85;;;12.00;99.90;;;;;;5044608;28;20047;-77
2022/04/05 11:23:13;;;;;;;10.48;7.05;;;11.90;99.90;;;;;;5058996;28;21069;-76
2022/04/05 11:25:42;;;;;;;15.15;6.90;;;11.80;99.90;;;;;;5082530;28;20024;-77
2022/04/05 11:28:15;;;;;;;9.27;7.05;;;11.80;99.90;;;;;;5048088;28;20024;-77
2022/04/05 11:30:52;;;;;;;8.60;6.70;;;11.70;99.90;;;;;;5034054;28;20032;-77
2022/04/05 11:33:21;;;;;;;12.02;8.43;;;11.60;99.90;;;;;;5030872;28;20035;-77
2022/04/05 11:35:51;;;;;;;11.60;7.57;;;11.50;99.90;;;;;;5062052;28;23024;-75
2022/04/05 11:38:17;;;;;;;10.45;8.18;;;11.50;99.90;;;;;;5062502;28;20020;-74
2022/04/05 11:40:50;;;;;;;12.95;8.35;;;11.50;99.90;;;;;;5063622;28;20020;-74
2022/04/05 11:43:24;;;;;;;14.75;9.02;;;11.50;99.90;;;;;;5062663;28;20366;-74
2022/04/05 11:45:52;;;;;;;10.70;7.53;;;11.60;99.90;;;;;;5061851;28;20016;-74
2022/04/05 11:48:20;;;;;;;12.32;8.23;;;11.70;99.90;;;;;;5063411;28;20035;-75
2022/04/05 11:50:50;;;;;;;8.93;6.97;;;11.80;99.90;;;;;;5081890;28;20374;-74
2022/04/05 11:53:28;;;;;;;9.05;7.40;;;12.10;99.90;;;;;;5027417;28;20039;-74
2022/04/05 11:56:10;;;;;;;8.20;7.38;;;12.40;99.90;;;;;;5063066;28;20387;-74
2022/04/05 11:58:39;;;;;;;10.25;7.60;;;12.60;99.90;;;;;;5094574;28;20029;-74
2022/04/05 12:01:07;;;;;;;10.38;8.07;;;12.70;99.90;;;;;;5066593;28;20020;-76
2022/04/05 12:03:49;;;;;;;9.25;6.88;;;12.80;99.90;;;;;;5046808;28;20368;-75
2022/04/05 12:06:31;;;;;;;10.38;6.43;;;12.80;99.90;;;;;;5063785;28;20023;-75
2022/04/05 12:09:04;;;;;;;10.07;7.18;;;12.80;99.90;;;;;;5045099;28;20020;-76
2022/04/05 12:11:33;;;;;;;11.02;7.25;;;12.80;99.90;;;;;;5059084;28;20036;-76
2022/04/05 12:14:02;;;;;;;10.50;6.97;;;12.70;99.90;;;;;;5062258;28;20039;-76
2022/04/05 12:16:42;;;;;;;8.77;6.60;;;12.60;99.90;;;;;;5029186;28;20035;-76
2022/04/05 12:19:09;;;;;;;9.02;6.93;;;12.60;99.90;;;;;;5081944;28;20017;-75
2022/04/05 12:21:36;;;;;;;8.18;6.50;;;12.60;99.90;;;;;;5061715;28;20044;-75
2022/04/05 12:24:02;;;;;;;9.73;6.70;;;12.60;99.90;;;;;;5062942;28;20024;-76
2022/04/05 12:26:32;;;;;;;9.15;6.72;;;12.60;99.90;;;;;;5044984;28;20025;-76
2022/04/05 12:28:59;;;;;;;13.32;7.07;;;12.50;99.90;;;;;;5066834;28;20031;-76
2022/04/05 12:31:32;;;;;;;10.45;6.95;;;12.50;99.90;;;;;;5047493;28;20589;-75
2022/04/05 12:34:13;;;;;;;9.93;7.15;;;12.60;99.90;;;;;;5079582;28;20024;-75
2022/04/05 12:37:02;;;;;;;10.25;6.95;;;12.70;99.90;;;;;;5060291;28;20490;-75
2022/04/05 12:39:30;;;;;;;8.32;6.95;;;12.70;99.90;;;;;;5062300;28;20463;-75
2022/04/05 12:42:08;;;;;;;9.02;6.20;;;12.70;99.90;;;;;;5043093;28;20039;-75
2022/04/05 12:44:40;;;;;;;11.07;6.82;;;12.60;99.90;;;;;;5061243;28;20094;-75
2022/04/05 12:47:08;;;;;;;9.23;6.10;;;12.60;99.90;;;;;;5061854;28;20032;-75
2022/04/05 12:49:38;;;;;;;11.20;6.00;;;12.70;99.90;;;;;;5046104;28;20036;-75
2022/04/05 12:52:19;;;;;;;11.73;6.47;;;12.80;99.90;;;;;;5077707;28;20035;-75
2022/04/05 12:54:50;;;;;;;8.90;6.18;;;12.90;99.90;;;;;;5060476;28;20042;-75
2022/04/05 12:57:29;;;;;;;7.85;5.60;;;12.90;99.90;;;;;;5079246;28;20519;-76
2022/04/05 13:00:18;;;;;;;10.25;6.45;;;12.90;99.90;;;;;;5080060;28;20020;-75